createdAt,value
2022-09-04T00:01:34.809Z,20.37
2022-09-04T00:04:43.373Z,20.46
2022-09-04T00:07:31.069Z,20.48
2022-09-04T00:10:11.713Z,20.48
2022-09-04T00:12:57.519Z,20.50
2022-09-04T00:15:36.517Z,20.46
2022-09-04T00:18:09.149Z,20.47
2022-09-04T00:20:42.309Z,20.41
2022-09-04T00:23:32.109Z,20.29
2022-09-04T00:26:23.539Z,20.24
2022-09-04T00:28:55.917Z,20.20
2022-09-04T00:31:38.988Z,20.18
2022-09-04T00:34:28.471Z,20.15
2022-09-04T00:37:01.517Z,20.09
2022-09-04T00:40:00.748Z,20.05
2022-09-04T00:42:27.767Z,20.05
2022-09-04T00:45:16.619Z,19.95
2022-09-04T00:48:00.367Z,19.85
2022-09-04T00:51:11.862Z,19.80
2022-09-04T00:53:52.109Z,19.74
2022-09-04T00:56:39.309Z,19.70
2022-09-04T00:59:51.049Z,19.64
2022-09-04T01:02:36.841Z,19.60
2022-09-04T01:05:19.799Z,19.58
2022-09-04T01:07:58.060Z,19.61
2022-09-04T01:10:54.261Z,19.55
2022-09-04T01:13:31.569Z,19.52
2022-09-04T01:16:09.355Z,19.42
2022-09-04T01:18:56.326Z,19.31
2022-09-04T01:21:51.089Z,19.29
2022-09-04T01:24:54.173Z,19.17
2022-09-04T01:27:49.572Z,19.14
2022-09-04T01:30:19.640Z,19.08
2022-09-04T01:32:49.629Z,19.05
2022-09-04T01:35:45.348Z,19.08
2022-09-04T01:38:34.181Z,19.02
2022-09-04T01:41:07.502Z,19.06
2022-09-04T01:43:35.021Z,19.07
2022-09-04T01:46:42.162Z,19.05
2022-09-04T01:49:25.639Z,19.02
2022-09-04T01:52:16.740Z,19.01
2022-09-04T01:55:08.630Z,19.02
2022-09-04T01:57:54.980Z,19.00
2022-09-04T02:00:24.976Z,19.03
2022-09-04T02:03:19.599Z,19.06
2022-09-04T02:06:08.759Z,19.02
2022-09-04T02:08:55.444Z,19.02
2022-09-04T02:11:29.581Z,18.99
2022-09-04T02:14:02.442Z,18.98
2022-09-04T02:16:56.579Z,18.95
2022-09-04T02:19:37.280Z,18.91
2022-09-04T02:22:25.587Z,18.93
2022-09-04T02:25:23.308Z,18.83
2022-09-04T02:28:12.400Z,18.84
2022-09-04T02:31:02.812Z,18.73
2022-09-04T02:33:32.661Z,18.67
2022-09-04T02:36:08.299Z,18.66
2022-09-04T02:38:53.500Z,18.61
2022-09-04T02:41:51.260Z,18.61
2022-09-04T02:44:18.778Z,18.59
2022-09-04T02:46:51.596Z,18.54
2022-09-04T02:49:36.202Z,18.53
2022-09-04T02:52:25.980Z,18.54
2022-09-04T02:55:20.360Z,18.54
2022-09-04T02:58:08.020Z,18.53
2022-09-04T03:00:57.753Z,18.56
2022-09-04T03:03:31.840Z,18.55
2022-09-04T03:06:18.680Z,18.52
2022-09-04T03:09:08.108Z,18.44
2022-09-04T03:11:46.210Z,18.45
2022-09-04T03:14:34.592Z,18.41
2022-09-04T03:17:26.181Z,18.35
2022-09-04T03:20:02.761Z,18.33
2022-09-04T03:22:51.240Z,18.28
2022-09-04T03:25:43.060Z,18.27
2022-09-04T03:28:23.048Z,18.28
2022-09-04T03:30:52.560Z,18.27
2022-09-04T03:33:33.630Z,18.33
2022-09-04T03:36:09.881Z,18.29
2022-09-04T03:38:48.890Z,18.29
2022-09-04T03:41:30.440Z,18.31
2022-09-04T03:44:34.971Z,18.28
2022-09-04T03:47:27.020Z,18.24
2022-09-04T03:50:12.560Z,18.26
2022-09-04T03:53:20.610Z,18.27
2022-09-04T03:56:35.200Z,18.27
2022-09-04T03:59:05.790Z,18.25
2022-09-04T04:01:54.742Z,18.25
2022-09-04T04:04:34.480Z,18.22
2022-09-04T04:07:29.275Z,18.24
2022-09-04T04:10:21.160Z,18.23
2022-09-04T04:13:18.161Z,18.20
2022-09-04T04:16:04.192Z,18.22
2022-09-04T04:19:10.935Z,18.22
2022-09-04T04:22:15.542Z,18.13
2022-09-04T04:25:12.303Z,18.19
2022-09-04T04:28:00.499Z,18.12
2022-09-04T04:30:39.043Z,18.12
2022-09-04T04:33:21.224Z,18.13
2022-09-04T04:35:55.043Z,18.17
2022-09-04T04:38:28.325Z,18.14
2022-09-04T04:41:14.462Z,18.12
2022-09-04T04:44:01.627Z,18.11
2022-09-04T04:47:04.451Z,18.08
2022-09-04T04:49:50.826Z,18.11
2022-09-04T04:52:25.382Z,18.13
2022-09-04T04:55:18.525Z,18.03
2022-09-04T04:58:00.546Z,18.00
2022-09-04T05:00:41.745Z,17.92
2022-09-04T05:03:24.631Z,17.89
2022-09-04T05:06:19.282Z,17.87
2022-09-04T05:09:05.602Z,17.89
2022-09-04T05:11:58.645Z,17.88
2022-09-04T05:14:31.581Z,17.90
2022-09-04T05:17:13.137Z,17.93
2022-09-04T05:20:04.943Z,18.01
2022-09-04T05:22:42.785Z,17.99
2022-09-04T05:25:16.727Z,17.99
2022-09-04T05:28:08.662Z,18.02
2022-09-04T05:31:00.505Z,18.04
2022-09-04T05:33:58.843Z,18.14
2022-09-04T05:36:52.269Z,18.21
2022-09-04T05:39:33.237Z,18.35
2022-09-04T05:42:37.867Z,18.46
2022-09-04T05:45:17.148Z,18.59
2022-09-04T05:48:10.823Z,18.65
2022-09-04T05:51:06.984Z,18.86
2022-09-04T05:54:07.865Z,19.01
2022-09-04T05:56:41.072Z,19.21
2022-09-04T05:59:37.462Z,19.39
2022-09-04T06:02:28.107Z,19.58
2022-09-04T06:05:03.744Z,19.58
2022-09-04T06:08:08.150Z,19.81
2022-09-04T06:11:06.496Z,19.85
2022-09-04T06:13:59.823Z,19.87
2022-09-04T06:16:58.974Z,19.96
2022-09-04T06:19:57.862Z,19.96
2022-09-04T06:22:37.050Z,20.07
2022-09-04T06:25:10.694Z,20.14
2022-09-04T06:27:55.565Z,20.24
2022-09-04T06:30:26.562Z,20.33
2022-09-04T06:33:19.078Z,20.41
2022-09-04T06:35:47.368Z,20.47
2022-09-04T06:38:34.883Z,20.54
2022-09-04T06:41:43.641Z,20.57
2022-09-04T06:44:50.702Z,20.65
2022-09-04T06:47:30.027Z,20.78
2022-09-04T06:50:18.067Z,20.82
2022-09-04T06:53:31.283Z,20.93
2022-09-04T06:56:10.686Z,20.91
2022-09-04T06:58:40.491Z,20.97
2022-09-04T07:01:13.912Z,20.98
2022-09-04T07:03:56.010Z,21.06
2022-09-04T07:06:34.582Z,21.15
2022-09-04T07:09:15.291Z,21.22
2022-09-04T07:12:02.262Z,21.31
2022-09-04T07:14:41.161Z,21.35
2022-09-04T07:17:34.024Z,21.43
2022-09-04T07:20:19.786Z,21.50
2022-09-04T07:22:59.683Z,21.55
2022-09-04T07:25:44.862Z,21.59
2022-09-04T07:28:49.522Z,21.67
2022-09-04T07:31:24.853Z,21.80
2022-09-04T07:34:12.044Z,21.89
2022-09-04T07:36:39.085Z,21.99
2022-09-04T07:39:25.559Z,22.03
2022-09-04T07:42:34.124Z,22.10
2022-09-04T07:45:23.726Z,22.18
2022-09-04T07:48:31.062Z,22.22
2022-09-04T07:51:10.925Z,22.26
2022-09-04T07:54:03.164Z,22.39
2022-09-04T07:56:49.603Z,22.46
2022-09-04T07:59:31.902Z,22.58
2022-09-04T08:02:23.942Z,22.66
2022-09-04T08:04:51.247Z,22.74
2022-09-04T08:07:38.606Z,22.80
2022-09-04T08:10:15.126Z,22.92
2022-09-04T08:12:51.423Z,23.00
2022-09-04T08:15:43.336Z,23.13
2022-09-04T08:18:25.663Z,23.10
2022-09-04T08:21:05.691Z,23.24
2022-09-04T08:23:54.491Z,23.42
2022-09-04T08:26:49.964Z,23.43
2022-09-04T08:29:29.023Z,23.54
2022-09-04T08:32:39.323Z,23.64
2022-09-04T08:35:24.764Z,23.80
2022-09-04T08:38:25.741Z,23.96
2022-09-04T08:41:31.121Z,24.03
2022-09-04T08:44:10.241Z,24.11
2022-09-04T08:47:02.162Z,24.17
2022-09-04T08:49:45.342Z,24.27
2022-09-04T08:52:30.562Z,24.38
2022-09-04T08:55:16.486Z,24.55
2022-09-04T08:58:08.021Z,24.64
2022-09-04T09:00:56.518Z,24.63
2022-09-04T09:03:53.162Z,24.88
2022-09-04T09:06:29.142Z,25.00
2022-09-04T09:09:28.041Z,25.14
2022-09-04T09:12:27.502Z,25.26
2022-09-04T09:15:37.933Z,25.44
2022-09-04T09:18:31.582Z,25.64
2022-09-04T09:21:08.905Z,25.85
2022-09-04T09:23:47.861Z,26.03
2022-09-04T09:26:29.842Z,26.10
2022-09-04T09:29:30.501Z,26.42
2022-09-04T09:32:34.665Z,26.64
2022-09-04T09:35:05.362Z,26.90
2022-09-04T09:37:58.285Z,27.05
2022-09-04T09:40:37.462Z,27.31
2022-09-04T09:43:19.749Z,27.41
2022-09-04T09:45:52.638Z,27.49
2022-09-04T09:48:53.593Z,27.60
2022-09-04T09:51:57.001Z,27.72
2022-09-04T09:54:58.281Z,27.87
2022-09-04T09:58:02.686Z,27.88
2022-09-04T10:00:46.604Z,27.72
2022-09-04T10:03:25.906Z,27.85
2022-09-04T10:06:34.742Z,27.70
2022-09-04T10:09:04.098Z,27.78
2022-09-04T10:11:56.400Z,27.75
2022-09-04T10:14:52.704Z,27.79
2022-09-04T10:17:40.661Z,27.80
2022-09-04T10:20:28.185Z,27.88
2022-09-04T10:23:19.794Z,28.07
2022-09-04T10:26:09.201Z,28.24
2022-09-04T10:29:11.503Z,28.37
2022-09-04T10:32:11.061Z,28.53
2022-09-04T10:35:12.107Z,28.55
2022-09-04T10:38:16.762Z,28.54
2022-09-04T10:41:15.869Z,28.53
2022-09-04T10:44:29.926Z,28.57
2022-09-04T10:47:16.881Z,28.71
2022-09-04T10:49:52.704Z,28.85
2022-09-04T10:52:53.523Z,29.03
2022-09-04T10:56:00.262Z,29.31
2022-09-04T10:59:13.601Z,29.42
2022-09-04T11:13:23.309Z,29.29
2022-09-04T11:16:14.943Z,29.29
2022-09-04T11:19:00.581Z,29.52
2022-09-04T11:22:05.620Z,29.64
2022-09-04T11:24:52.441Z,29.81
2022-09-04T11:27:39.200Z,30.08
2022-09-04T11:30:20.655Z,30.39
2022-09-04T11:33:36.222Z,30.64
2022-09-04T11:36:29.922Z,30.88
2022-09-04T11:39:30.751Z,31.07
2022-09-04T11:42:04.123Z,31.19
2022-09-04T11:45:00.802Z,31.37
2022-09-04T11:47:41.681Z,31.43
2022-09-04T11:50:18.084Z,31.50
2022-09-04T11:53:04.601Z,31.61
2022-09-04T11:55:53.502Z,31.73
2022-09-04T11:58:52.542Z,31.77
2022-09-04T12:01:27.522Z,31.81
2022-09-04T12:04:30.663Z,32.18
2022-09-04T12:07:39.349Z,32.42
2022-09-04T12:10:20.048Z,32.75
2022-09-04T12:13:15.302Z,32.89
2022-09-04T12:16:13.949Z,32.81
2022-09-04T12:18:42.042Z,32.52
2022-09-04T12:21:51.602Z,32.45
2022-09-04T12:24:42.161Z,32.22
2022-09-04T12:27:47.092Z,31.89
2022-09-04T12:30:48.763Z,31.54
2022-09-04T12:33:31.162Z,31.11
2022-09-04T12:36:11.389Z,30.87
2022-09-04T12:39:12.682Z,30.46
2022-09-04T12:41:48.027Z,30.13
2022-09-04T12:44:36.408Z,29.70
2022-09-04T12:47:26.124Z,29.59
2022-09-04T12:50:16.213Z,29.21
2022-09-04T12:53:05.384Z,29.06
2022-09-04T12:56:01.284Z,28.66
2022-09-04T12:58:49.047Z,28.48
2022-09-04T13:01:48.590Z,28.30
2022-09-04T13:04:31.941Z,28.02
2022-09-04T13:07:23.086Z,27.76
2022-09-04T13:09:53.145Z,27.55
2022-09-04T13:12:45.913Z,27.29
2022-09-04T13:15:19.727Z,27.02
2022-09-04T13:17:54.369Z,26.79
2022-09-04T13:20:41.769Z,26.61
2022-09-04T13:23:11.405Z,26.34
2022-09-04T13:26:05.682Z,26.16
2022-09-04T13:29:03.422Z,25.93
2022-09-04T13:31:36.348Z,25.73
2022-09-04T13:34:22.563Z,25.55
2022-09-04T13:37:06.523Z,25.51
2022-09-04T13:39:52.136Z,25.58
2022-09-04T13:42:43.010Z,25.80
2022-09-04T13:45:32.823Z,26.16
2022-09-04T13:48:18.688Z,26.57
2022-09-04T13:50:56.043Z,26.97
2022-09-04T13:53:31.306Z,27.24
2022-09-04T13:56:03.603Z,27.37
2022-09-04T13:58:35.402Z,27.53
2022-09-04T14:01:07.447Z,27.71
2022-09-04T14:04:11.666Z,27.88
2022-09-04T14:06:39.362Z,28.02
2022-09-04T14:09:07.223Z,28.09
2022-09-04T14:11:37.561Z,28.07
2022-09-04T14:14:41.802Z,28.02
2022-09-04T14:17:10.390Z,27.81
2022-09-04T14:19:50.303Z,27.99
2022-09-04T14:22:26.245Z,27.98
2022-09-04T14:25:11.672Z,27.89
2022-09-04T14:28:03.604Z,27.61
2022-09-04T14:30:40.123Z,27.21
2022-09-04T14:33:19.145Z,26.92
2022-09-04T14:36:05.604Z,26.60
2022-09-04T14:38:54.304Z,26.17
2022-09-04T14:41:21.531Z,25.95
2022-09-04T14:44:13.425Z,25.58
2022-09-04T14:47:12.287Z,25.34
2022-09-04T14:49:47.399Z,25.04
2022-09-04T14:52:22.944Z,24.89
2022-09-04T14:54:57.846Z,24.56
2022-09-04T14:57:31.963Z,24.37
2022-09-04T15:00:08.355Z,24.22
2022-09-04T15:03:20.739Z,23.96
2022-09-04T15:05:59.644Z,23.88
2022-09-04T15:08:40.103Z,23.80
2022-09-04T15:11:10.147Z,23.76
2022-09-04T15:14:00.303Z,23.56
2022-09-04T15:16:39.606Z,23.55
2022-09-04T15:19:26.699Z,23.61
2022-09-04T15:22:11.023Z,23.81
2022-09-04T15:24:44.125Z,24.09
2022-09-04T15:27:35.193Z,24.29
2022-09-04T15:30:12.124Z,24.20
2022-09-04T15:32:42.778Z,24.19
2022-09-04T15:35:24.286Z,24.27
2022-09-04T15:38:18.385Z,24.27
2022-09-04T15:41:16.575Z,24.24
2022-09-04T15:43:51.524Z,24.26
2022-09-04T15:46:38.236Z,24.31
2022-09-04T15:49:43.083Z,24.28
2022-09-04T15:52:10.762Z,24.32
2022-09-04T15:54:40.805Z,24.29
2022-09-04T15:57:16.643Z,24.25
2022-09-04T15:59:51.957Z,24.22
2022-09-04T16:02:36.683Z,24.19
2022-09-04T16:05:41.704Z,24.22
2022-09-04T16:08:38.931Z,24.16
2022-09-04T16:11:19.102Z,24.14
2022-09-04T16:13:59.601Z,24.15
2022-09-04T16:16:39.450Z,24.04
2022-09-04T16:19:44.644Z,23.96
2022-09-04T16:22:17.383Z,23.95
2022-09-04T16:24:48.122Z,23.87
2022-09-04T16:27:20.126Z,23.84
2022-09-04T16:30:09.183Z,23.80
2022-09-04T16:32:36.504Z,23.76
2022-09-04T16:35:21.701Z,23.74
2022-09-04T16:38:07.643Z,23.62
2022-09-04T16:40:56.467Z,23.57
2022-09-04T16:43:28.990Z,23.63
2022-09-04T16:46:14.149Z,23.56
2022-09-04T16:49:00.965Z,23.47
2022-09-04T16:51:41.140Z,23.48
2022-09-04T16:54:28.642Z,23.52
2022-09-04T16:57:13.589Z,23.49
2022-09-04T16:59:48.927Z,23.46
2022-09-04T17:02:16.163Z,23.45
2022-09-04T17:05:35.183Z,23.49
2022-09-04T17:08:08.184Z,23.48
2022-09-04T17:10:43.262Z,23.43
2022-09-04T17:13:28.545Z,23.36
2022-09-04T17:16:08.006Z,23.30
2022-09-04T17:18:39.486Z,23.27
2022-09-04T17:29:04.839Z,23.27
2022-09-04T17:29:08.802Z,23.10
2022-09-04T17:29:10.110Z,23.14
2022-09-04T17:31:17.594Z,23.02
2022-09-04T17:40:42.425Z,22.93
2022-09-04T17:40:49.874Z,22.78
2022-09-04T17:40:53.994Z,22.68
2022-09-04T17:43:21.579Z,22.54
2022-09-04T17:46:27.723Z,22.40
2022-09-04T17:48:56.242Z,22.27
2022-09-04T17:51:27.744Z,22.14
2022-09-04T17:54:03.430Z,22.06
2022-09-04T17:56:30.621Z,21.94
2022-09-04T17:59:01.102Z,21.92
2022-09-04T18:01:52.897Z,21.89
2022-09-04T18:04:22.464Z,21.84
2022-09-04T18:07:35.646Z,21.55
2022-09-04T18:10:24.013Z,21.41
2022-09-04T18:13:30.403Z,21.27
2022-09-04T18:16:27.194Z,21.38
2022-09-04T18:19:31.158Z,21.19
2022-09-04T18:22:26.856Z,21.16
2022-09-04T18:25:17.752Z,21.16
2022-09-04T18:28:06.185Z,21.04
2022-09-04T18:37:09.342Z,21.03
2022-09-04T18:37:18.590Z,20.93
2022-09-04T18:37:22.454Z,20.88
2022-09-04T18:39:48.591Z,20.91
2022-09-04T18:48:59.003Z,20.79
2022-09-04T18:50:33.639Z,20.74
2022-09-04T18:50:38.909Z,20.69
2022-09-04T18:51:20.898Z,20.71
2022-09-04T18:53:51.462Z,20.72
2022-09-04T18:56:44.705Z,20.73
2022-09-04T18:59:25.045Z,20.71
2022-09-04T19:02:18.438Z,20.65
2022-09-04T19:04:49.221Z,20.57
2022-09-04T19:07:30.304Z,20.58
2022-09-04T19:10:27.324Z,20.56
2022-09-04T19:13:02.103Z,20.52
2022-09-04T19:15:51.729Z,20.43
2022-09-04T19:18:30.472Z,20.39
2022-09-04T19:21:03.468Z,20.33
2022-09-04T19:23:37.510Z,20.32
2022-09-04T19:26:39.386Z,20.34
2022-09-04T19:29:22.921Z,20.27
2022-09-04T19:32:04.655Z,20.25
2022-09-04T19:34:46.723Z,20.23
2022-09-04T19:40:22.992Z,20.02
2022-09-04T19:46:17.278Z,20.03
2022-09-04T19:46:19.779Z,20.07
2022-09-04T19:47:03.370Z,19.82
2022-09-04T19:53:18.058Z,19.73
2022-09-04T19:53:31.539Z,19.74
2022-09-04T19:55:57.169Z,19.81
2022-09-04T19:58:44.006Z,19.83
2022-09-04T20:01:26.124Z,19.84
2022-09-04T20:04:11.005Z,19.85
2022-09-04T20:06:48.227Z,19.79
2022-09-04T20:09:24.266Z,19.82
2022-09-04T20:12:16.284Z,19.86
2022-09-04T20:15:14.024Z,19.84
2022-09-04T20:17:41.002Z,19.86
2022-09-04T20:20:32.865Z,19.82
2022-09-04T20:23:35.165Z,19.83
2022-09-04T20:26:09.415Z,19.79
2022-09-04T20:29:06.188Z,19.70
2022-09-04T20:31:45.234Z,19.69
2022-09-04T20:34:29.746Z,19.63
2022-09-04T20:37:26.465Z,19.61
2022-09-04T20:40:24.960Z,19.58
2022-09-04T20:43:03.404Z,19.57
2022-09-04T20:48:55.160Z,19.53
2022-09-04T20:52:49.297Z,19.50
2022-09-04T20:52:58.763Z,19.49
2022-09-04T20:54:49.245Z,19.47
2022-09-04T21:03:05.203Z,19.51
2022-09-04T21:03:18.413Z,19.50
2022-09-04T21:03:28.866Z,19.46
2022-09-04T21:06:10.921Z,19.47
2022-09-04T21:08:53.702Z,19.52
2022-09-04T21:11:41.042Z,19.49
2022-09-04T21:14:43.511Z,19.49
2022-09-04T21:17:34.265Z,19.56
2022-09-04T21:20:14.114Z,19.52
2022-09-04T21:23:07.702Z,19.40
2022-09-04T21:25:56.361Z,19.39
2022-09-04T21:28:44.743Z,19.37
2022-09-04T21:31:46.681Z,19.41
2022-09-04T21:34:50.122Z,19.41
2022-09-04T21:37:23.180Z,19.41
2022-09-04T21:40:51.075Z,19.42
2022-09-04T21:43:35.994Z,19.41
2022-09-04T21:46:07.756Z,19.35
2022-09-04T21:49:07.596Z,19.30
2022-09-04T21:51:47.303Z,19.24
2022-09-04T21:56:00.733Z,19.20
2022-09-04T22:02:28.584Z,19.16
2022-09-04T22:02:42.616Z,19.19
2022-09-04T22:03:34.205Z,19.13
2022-09-04T22:06:36.658Z,19.14
2022-09-04T22:13:33.699Z,19.10
2022-09-04T22:13:37.959Z,19.05
2022-09-04T22:15:05.641Z,19.01
2022-09-04T22:17:57.061Z,19.00
2022-09-04T22:20:43.408Z,18.96
2022-09-04T22:23:54.110Z,18.99
2022-09-04T22:26:51.383Z,18.99
2022-09-04T22:29:39.555Z,19.00
2022-09-04T22:32:22.808Z,19.03
2022-09-04T22:35:25.292Z,19.02
2022-09-04T22:38:19.540Z,19.10
2022-09-04T22:41:26.602Z,19.12
2022-09-04T22:44:18.871Z,19.14
2022-09-04T22:46:59.710Z,19.11
2022-09-04T22:49:57.244Z,19.13
2022-09-04T22:52:50.699Z,19.15
2022-09-04T22:55:40.649Z,19.09
2022-09-04T22:58:36.802Z,19.05
2022-09-04T23:01:17.467Z,18.90
2022-09-04T23:04:17.355Z,18.92
2022-09-04T23:12:13.551Z,18.94
2022-09-04T23:13:49.104Z,18.90
2022-09-04T23:14:02.134Z,18.73
2022-09-04T23:15:40.683Z,18.83
2022-09-04T23:19:10.366Z,18.77
2022-09-04T23:26:47.005Z,18.78
2022-09-04T23:26:52.673Z,18.75
2022-09-04T23:27:29.983Z,18.77
2022-09-04T23:30:23.058Z,18.71
2022-09-04T23:33:09.933Z,18.75
2022-09-04T23:36:01.214Z,18.74
2022-09-04T23:39:22.334Z,18.69
2022-09-04T23:42:09.207Z,18.73
2022-09-04T23:44:39.173Z,18.74
2022-09-04T23:47:48.561Z,18.74
2022-09-04T23:50:20.564Z,18.72
2022-09-04T23:53:04.154Z,18.69
2022-09-04T23:55:48.904Z,18.65
2022-09-04T23:59:04.142Z,18.63
